createdAt,value
2018-05-11T00:00:36.519Z,0.00
2018-05-11T00:01:36.524Z,0.00
2018-05-11T00:02:36.575Z,0.00
2018-05-11T00:03:36.941Z,0.00
2018-05-11T00:04:36.672Z,0.00
2018-05-11T00:05:36.649Z,0.00
2018-05-11T00:06:36.681Z,0.00
2018-05-11T00:07:36.712Z,0.00
2018-05-11T00:08:36.744Z,0.00
2018-05-11T00:09:36.835Z,0.00
2018-05-11T00:10:37.106Z,0.00
2018-05-11T00:11:36.843Z,0.00
2018-05-11T00:12:36.872Z,0.00
2018-05-11T00:13:36.904Z,0.00
2018-05-11T00:14:36.935Z,0.00
2018-05-11T00:15:36.963Z,0.00
2018-05-11T00:16:37.298Z,0.00
2018-05-11T00:17:37.035Z,0.00
2018-05-11T00:18:37.159Z,0.00
2018-05-11T00:19:37.102Z,0.00
2018-05-11T00:20:37.119Z,0.00
2018-05-11T00:21:37.151Z,0.00
2018-05-11T00:22:37.486Z,0.00
2018-05-11T00:23:37.286Z,0.00
2018-05-11T00:24:37.250Z,0.00
2018-05-11T00:25:37.276Z,0.00
2018-05-11T00:26:37.329Z,0.00
2018-05-11T00:27:37.340Z,0.00
2018-05-11T00:28:37.675Z,0.00
2018-05-11T00:29:37.405Z,0.00
2018-05-11T00:30:37.495Z,0.00
2018-05-11T00:31:37.523Z,0.00
2018-05-11T00:32:37.504Z,0.00
2018-05-11T00:33:37.536Z,0.00
2018-05-11T00:34:37.860Z,0.00
2018-05-11T00:35:37.602Z,0.00
2018-05-11T00:36:37.649Z,0.00
2018-05-11T00:37:37.663Z,0.00
2018-05-11T00:38:37.840Z,0.00
2018-05-11T00:39:37.715Z,0.00
2018-05-11T00:40:37.751Z,0.00
2018-05-11T00:41:38.103Z,0.00
2018-05-11T00:42:37.820Z,0.00
2018-05-11T00:43:37.853Z,0.00
2018-05-11T00:44:37.886Z,0.00
2018-05-11T00:45:37.923Z,0.00
2018-05-11T00:46:37.953Z,0.00
2018-05-11T00:47:38.314Z,0.00
2018-05-11T00:48:38.017Z,0.00
2018-05-11T00:49:38.141Z,0.00
2018-05-11T00:50:38.060Z,0.00
2018-05-11T00:51:38.093Z,0.00
2018-05-11T00:52:38.123Z,0.00
2018-05-11T00:53:38.471Z,0.00
2018-05-11T00:54:38.187Z,0.00
2018-05-11T00:55:38.346Z,0.00
2018-05-11T00:56:38.259Z,0.00
2018-05-11T00:57:38.288Z,0.00
2018-05-11T00:58:38.321Z,0.00
2018-05-11T00:59:38.651Z,0.00
2018-05-11T01:00:38.382Z,0.00
2018-05-11T01:01:38.432Z,0.00
2018-05-11T01:02:38.450Z,0.00
2018-05-11T01:03:38.545Z,0.00
2018-05-11T01:04:38.500Z,0.00
2018-05-11T01:05:38.840Z,0.00
2018-05-11T01:06:38.859Z,0.00
2018-05-11T01:07:38.597Z,0.00
2018-05-11T01:08:38.636Z,0.00
2018-05-11T01:09:38.671Z,0.00
2018-05-11T01:10:38.686Z,0.00
2018-05-11T01:11:39.017Z,0.00
2018-05-11T01:12:38.812Z,0.00
2018-05-11T01:13:38.784Z,0.00
2018-05-11T01:14:38.863Z,0.00
2018-05-11T01:15:38.842Z,0.00
2018-05-11T01:16:38.875Z,0.00
2018-05-11T01:17:39.204Z,0.00
2018-05-11T01:18:38.960Z,0.00
2018-05-11T01:19:38.967Z,0.00
2018-05-11T01:20:39.009Z,0.00
2018-05-11T01:21:39.033Z,0.00
2018-05-11T01:22:39.072Z,0.00
2018-05-11T01:23:39.397Z,0.00
2018-05-11T01:24:39.140Z,0.00
2018-05-11T01:25:39.156Z,0.00
2018-05-11T01:26:39.210Z,0.00
2018-05-11T01:27:39.246Z,0.00
2018-05-11T01:28:39.594Z,0.00
2018-05-11T01:29:39.645Z,0.00
2018-05-11T01:30:39.324Z,0.00
2018-05-11T01:31:39.347Z,0.00
2018-05-11T01:32:39.411Z,0.00
2018-05-11T01:33:39.424Z,0.00
2018-05-11T01:34:39.647Z,0.00
2018-05-11T01:35:39.776Z,0.00
2018-05-11T01:36:39.496Z,0.00
2018-05-11T01:37:39.532Z,0.00
2018-05-11T01:38:39.570Z,0.00
2018-05-11T01:39:39.595Z,0.00
2018-05-11T01:40:39.777Z,0.00
2018-05-11T01:41:39.953Z,0.00
2018-05-11T01:42:39.682Z,0.00
2018-05-11T01:43:39.720Z,0.00
2018-05-11T01:44:39.743Z,0.00
2018-05-11T01:45:39.774Z,0.00
2018-05-11T01:46:39.808Z,0.00
2018-05-11T01:47:40.146Z,0.00
2018-05-11T01:48:39.884Z,0.00
2018-05-11T01:49:41.921Z,0.00
2018-05-11T01:50:39.986Z,0.00
2018-05-11T01:51:39.988Z,0.00
2018-05-11T01:52:40.001Z,0.00
2018-05-11T01:53:40.323Z,0.00
2018-05-11T01:54:40.052Z,0.00
2018-05-11T01:55:40.195Z,0.00
2018-05-11T01:56:40.120Z,0.00
2018-05-11T01:57:40.176Z,0.00
2018-05-11T01:58:40.217Z,0.00
2018-05-11T01:59:40.623Z,0.00
2018-05-11T02:00:40.254Z,0.00
2018-05-11T02:01:40.277Z,0.00
2018-05-11T02:02:40.304Z,0.00
2018-05-11T02:03:40.458Z,0.00
2018-05-11T02:04:40.368Z,0.00
2018-05-11T02:05:40.963Z,0.00
2018-05-11T02:06:40.467Z,0.00
2018-05-11T02:07:40.462Z,0.00
2018-05-11T02:08:40.544Z,0.00
2018-05-11T02:09:40.590Z,0.00
2018-05-11T02:10:40.557Z,0.00
2018-05-11T02:11:40.982Z,0.00
2018-05-11T02:12:40.621Z,0.00
2018-05-11T02:13:40.646Z,0.00
2018-05-11T02:14:40.697Z,0.00
2018-05-11T02:15:40.807Z,0.00
2018-05-11T02:16:40.743Z,0.00
2018-05-11T02:17:41.068Z,0.00
2018-05-11T02:18:40.803Z,0.00
2018-05-11T02:19:40.828Z,0.00
2018-05-11T02:20:40.871Z,0.00
2018-05-11T02:21:40.890Z,0.00
2018-05-11T02:22:40.927Z,0.00
2018-05-11T02:23:40.952Z,0.00
2018-05-11T02:24:41.336Z,0.00
2018-05-11T02:25:41.019Z,0.00
2018-05-11T02:26:41.059Z,0.00
2018-05-11T02:27:41.095Z,0.00
2018-05-11T02:28:41.115Z,0.00
2018-05-11T02:29:41.150Z,0.00
2018-05-11T02:30:41.174Z,0.00
2018-05-11T02:31:41.550Z,0.00
2018-05-11T02:32:41.231Z,0.00
2018-05-11T02:33:41.273Z,0.00
2018-05-11T02:34:41.298Z,0.00
2018-05-11T02:35:41.326Z,0.00
2018-05-11T02:36:41.408Z,0.00
2018-05-11T02:37:41.398Z,0.00
2018-05-11T02:38:41.723Z,0.00
2018-05-11T02:39:41.453Z,0.00
2018-05-11T02:40:41.486Z,0.00
2018-05-11T02:41:41.515Z,0.00
2018-05-11T02:42:41.592Z,0.00
2018-05-11T02:43:41.571Z,0.00
2018-05-11T02:44:41.606Z,0.00
2018-05-11T02:45:41.932Z,0.00
2018-05-11T02:46:41.664Z,0.00
2018-05-11T02:47:41.692Z,0.00
2018-05-11T02:48:41.779Z,0.00
2018-05-11T02:49:41.759Z,0.00
2018-05-11T02:50:41.834Z,0.00
2018-05-11T02:51:42.127Z,0.00
2018-05-11T02:52:41.850Z,0.00
2018-05-11T02:53:42.081Z,0.00
2018-05-11T02:54:41.912Z,0.00
2018-05-11T02:55:41.945Z,0.00
2018-05-11T02:56:41.971Z,0.00
2018-05-11T02:57:42.305Z,0.00
2018-05-11T02:58:42.038Z,0.00
2018-05-11T02:59:42.095Z,0.00
2018-05-11T03:00:42.102Z,0.00
2018-05-11T03:01:42.138Z,0.00
2018-05-11T03:02:42.163Z,0.00
2018-05-11T03:03:42.502Z,0.00
2018-05-11T03:04:42.224Z,0.00
2018-05-11T03:05:42.492Z,0.00
2018-05-11T03:06:42.299Z,0.00
2018-05-11T03:07:42.334Z,0.00
2018-05-11T03:08:42.341Z,0.00
2018-05-11T03:09:42.377Z,0.00
2018-05-11T03:10:42.727Z,0.00
2018-05-11T03:11:42.437Z,0.00
2018-05-11T03:12:42.474Z,0.00
2018-05-11T03:13:42.498Z,0.00
2018-05-11T03:14:42.525Z,0.00
2018-05-11T03:15:42.769Z,0.00
2018-05-11T03:16:42.593Z,0.00
2018-05-11T03:17:42.921Z,0.00
2018-05-11T03:18:42.811Z,0.00
2018-05-11T03:19:42.699Z,0.00
2018-05-11T03:20:42.833Z,0.00
2018-05-11T03:21:42.747Z,4.00
2018-05-11T03:22:42.780Z,4.00
2018-05-11T03:23:43.114Z,4.00
2018-05-11T03:24:42.875Z,4.00
2018-05-11T03:25:42.864Z,4.00
2018-05-11T03:26:42.995Z,8.00
2018-05-11T03:27:42.928Z,4.00
2018-05-11T03:28:42.956Z,8.00
2018-05-11T03:29:43.300Z,12.00
2018-05-11T03:30:43.021Z,8.00
2018-05-11T03:31:43.056Z,12.00
2018-05-11T03:32:43.085Z,12.00
2018-05-11T03:33:43.114Z,12.00
2018-05-11T03:34:43.141Z,16.00
2018-05-11T03:35:43.514Z,20.00
2018-05-11T03:36:43.208Z,24.00
2018-05-11T03:37:43.432Z,28.00
2018-05-11T03:38:43.267Z,28.00
2018-05-11T03:39:43.330Z,32.00
2018-05-11T03:40:43.337Z,36.00
2018-05-11T03:41:43.662Z,40.00
2018-05-11T03:42:43.386Z,44.00
2018-05-11T03:43:43.419Z,48.00
2018-05-11T03:44:43.454Z,56.00
2018-05-11T03:45:43.605Z,64.00
2018-05-11T03:46:43.522Z,68.00
2018-05-11T03:47:43.849Z,76.00
2018-05-11T03:48:43.668Z,84.00
2018-05-11T03:49:43.853Z,88.00
2018-05-11T03:50:43.675Z,96.00
2018-05-11T03:51:43.666Z,104.00
2018-05-11T03:52:43.725Z,116.00
2018-05-11T03:53:44.059Z,124.00
2018-05-11T03:54:43.769Z,136.00
2018-05-11T03:55:43.856Z,144.00
2018-05-11T03:56:43.842Z,156.00
2018-05-11T03:57:43.862Z,164.00
2018-05-11T03:58:43.922Z,176.00
2018-05-11T03:59:43.963Z,188.00
2018-05-11T04:00:44.247Z,200.00
2018-05-11T04:01:43.975Z,208.00
2018-05-11T04:02:44.006Z,224.00
2018-05-11T04:03:44.048Z,232.00
2018-05-11T04:04:44.171Z,248.00
2018-05-11T04:05:44.137Z,260.00
2018-05-11T04:06:44.434Z,272.00
2018-05-11T04:07:44.188Z,284.00
2018-05-11T04:08:44.211Z,300.00
2018-05-11T04:09:44.268Z,316.00
2018-05-11T04:10:44.254Z,328.00
2018-05-11T04:11:44.279Z,344.00
2018-05-11T04:12:44.615Z,356.00
2018-05-11T04:13:44.354Z,368.00
2018-05-11T04:14:44.378Z,380.00
2018-05-11T04:15:44.603Z,396.00
2018-05-11T04:16:44.463Z,408.00
2018-05-11T04:17:44.463Z,424.00
2018-05-11T04:18:44.797Z,436.00
2018-05-11T04:19:44.526Z,448.00
2018-05-11T04:20:44.641Z,464.00
2018-05-11T04:21:44.709Z,480.00
2018-05-11T04:22:44.659Z,496.00
2018-05-11T04:23:44.651Z,508.00
2018-05-11T04:24:44.980Z,524.00
2018-05-11T04:25:44.711Z,540.00
2018-05-11T04:26:44.746Z,556.00
2018-05-11T04:27:44.824Z,568.00
2018-05-11T04:28:44.810Z,584.00
2018-05-11T04:29:44.897Z,596.00
2018-05-11T04:30:45.226Z,612.00
2018-05-11T04:31:44.925Z,628.00
2018-05-11T04:32:44.940Z,644.00
2018-05-11T04:33:44.952Z,664.00
2018-05-11T04:34:44.997Z,676.00
2018-05-11T04:35:45.096Z,692.00
2018-05-11T04:36:45.354Z,708.00
2018-05-11T04:37:45.077Z,720.00
2018-05-11T04:38:45.109Z,740.00
2018-05-11T04:39:45.169Z,752.00
2018-05-11T04:40:45.171Z,772.00
2018-05-11T04:41:45.232Z,784.00
2018-05-11T04:42:45.536Z,800.00
2018-05-11T04:43:45.261Z,812.00
2018-05-11T04:44:45.324Z,832.00
2018-05-11T04:45:45.330Z,840.00
2018-05-11T04:46:45.354Z,856.00
2018-05-11T04:47:45.411Z,868.00
2018-05-11T04:48:45.734Z,880.00
2018-05-11T04:49:45.496Z,896.00
2018-05-11T04:50:45.474Z,908.00
2018-05-11T04:51:45.558Z,924.00
2018-05-11T04:52:45.548Z,940.00
2018-05-11T04:53:45.567Z,952.00
2018-05-11T04:54:45.974Z,972.00
2018-05-11T04:55:45.884Z,980.00
2018-05-11T04:56:45.738Z,992.00
2018-05-11T04:57:45.719Z,1008.00
2018-05-11T04:58:45.782Z,1016.00
2018-05-11T04:59:45.764Z,1028.00
2018-05-11T05:00:46.080Z,1040.00
2018-05-11T05:01:45.865Z,1048.00
2018-05-11T05:02:46.124Z,1064.00
2018-05-11T05:03:45.884Z,1076.00
2018-05-11T05:04:46.001Z,1088.00
2018-05-11T05:05:45.938Z,1104.00
2018-05-11T05:06:46.268Z,1120.00
2018-05-11T05:07:46.057Z,1132.00
2018-05-11T05:08:46.027Z,1148.00
2018-05-11T05:09:46.259Z,1156.00
2018-05-11T05:10:46.185Z,1168.00
2018-05-11T05:11:46.147Z,1176.00
2018-05-11T05:12:46.508Z,1184.00
2018-05-11T05:13:46.208Z,1192.00
2018-05-11T05:14:46.362Z,1204.00
2018-05-11T05:15:46.300Z,1220.00
2018-05-11T05:16:46.277Z,1232.00
2018-05-11T05:17:46.328Z,1240.00
2018-05-11T05:18:46.647Z,1252.00
2018-05-11T05:19:46.529Z,1260.00
2018-05-11T05:20:46.465Z,1272.00
2018-05-11T05:21:46.468Z,1280.00
2018-05-11T05:22:46.468Z,1288.00
2018-05-11T05:23:46.493Z,1292.00
2018-05-11T05:24:46.818Z,1300.00
2018-05-11T05:25:46.549Z,1308.00
2018-05-11T05:26:46.605Z,1316.00
2018-05-11T05:27:46.763Z,1328.00
2018-05-11T05:28:46.646Z,1340.00
2018-05-11T05:29:46.873Z,1356.00
2018-05-11T05:30:46.708Z,1368.00
2018-05-11T05:31:47.035Z,1376.00
2018-05-11T05:32:46.819Z,1388.00
2018-05-11T05:33:46.856Z,1396.00
2018-05-11T05:34:46.875Z,1400.00
2018-05-11T05:35:46.867Z,1408.00
2018-05-11T05:36:46.889Z,1416.00
2018-05-11T05:37:47.219Z,1428.00
2018-05-11T05:38:46.948Z,1440.00
2018-05-11T05:39:47.005Z,1452.00
2018-05-11T05:40:47.311Z,1468.00
2018-05-11T05:41:47.043Z,1480.00
2018-05-11T05:42:47.066Z,1488.00
2018-05-11T05:43:47.399Z,1488.00
2018-05-11T05:44:47.133Z,1492.00
2018-05-11T05:45:47.198Z,1496.00
2018-05-11T05:46:47.195Z,1500.00
2018-05-11T05:47:47.226Z,1504.00
2018-05-11T05:48:47.253Z,1516.00
2018-05-11T05:49:47.641Z,1528.00
2018-05-11T05:50:47.317Z,1536.00
2018-05-11T05:51:47.403Z,1540.00
2018-05-11T05:52:47.382Z,1552.00
2018-05-11T05:53:47.409Z,1560.00
2018-05-11T05:54:47.458Z,1580.00
2018-05-11T05:55:47.779Z,1588.00
2018-05-11T05:56:47.559Z,1588.00
2018-05-11T05:57:47.532Z,1592.00
2018-05-11T05:58:47.586Z,1592.00
2018-05-11T05:59:47.595Z,1592.00
2018-05-11T06:00:47.671Z,1600.00
2018-05-11T06:01:47.978Z,1632.00
2018-05-11T06:02:47.694Z,1652.00
2018-05-11T06:03:47.728Z,1664.00
2018-05-11T06:04:47.756Z,1676.00
2018-05-11T06:05:47.783Z,1684.00
2018-05-11T06:06:47.826Z,1696.00
2018-05-11T06:07:48.145Z,1704.00
2018-05-11T06:08:47.877Z,1716.00
2018-05-11T06:09:47.910Z,1724.00
2018-05-11T06:10:47.993Z,1728.00
2018-05-11T06:11:47.974Z,1732.00
2018-05-11T06:12:47.996Z,1740.00
2018-05-11T06:13:48.341Z,1748.00
2018-05-11T06:14:48.059Z,1760.00
2018-05-11T06:15:48.090Z,1764.00
2018-05-11T06:16:48.122Z,1768.00
2018-05-11T06:17:48.256Z,1772.00
2018-05-11T06:18:48.186Z,1776.00
2018-05-11T06:19:48.516Z,1780.00
2018-05-11T06:20:48.244Z,1784.00
2018-05-11T06:21:48.276Z,1788.00
2018-05-11T06:22:48.335Z,1784.00
2018-05-11T06:23:48.441Z,1788.00
2018-05-11T06:24:48.429Z,1808.00
2018-05-11T06:25:48.703Z,1820.00
2018-05-11T06:26:48.437Z,1832.00
2018-05-11T06:27:48.536Z,1844.00
2018-05-11T06:28:48.962Z,1856.00
2018-05-11T06:29:48.684Z,1852.00
2018-05-11T06:30:48.566Z,1856.00
2018-05-11T06:31:48.896Z,1864.00
2018-05-11T06:32:48.621Z,1860.00
2018-05-11T06:33:48.651Z,1856.00
2018-05-11T06:34:48.685Z,1860.00
2018-05-11T06:35:48.714Z,1872.00
2018-05-11T06:36:48.753Z,1880.00
2018-05-11T06:37:49.077Z,1888.00
2018-05-11T06:38:48.821Z,1888.00
2018-05-11T06:39:48.841Z,1888.00
2018-05-11T06:40:48.879Z,1876.00
2018-05-11T06:41:49.069Z,1884.00
2018-05-11T06:42:48.941Z,1884.00
2018-05-11T06:43:49.270Z,1896.00
2018-05-11T06:44:49.014Z,1904.00
2018-05-11T06:45:49.027Z,1912.00
2018-05-11T06:46:49.244Z,1916.00
2018-05-11T06:47:49.149Z,1924.00
2018-05-11T06:48:49.135Z,1932.00
2018-05-11T06:49:49.457Z,1948.00
2018-05-11T06:50:49.218Z,1956.00
2018-05-11T06:51:49.225Z,1968.00
2018-05-11T06:52:49.265Z,1980.00
2018-05-11T06:53:49.284Z,1988.00
2018-05-11T06:54:49.318Z,1996.00
2018-05-11T06:55:49.649Z,2004.00
2018-05-11T06:56:49.384Z,2012.00
2018-05-11T06:57:49.417Z,2040.00
2018-05-11T06:58:49.555Z,2060.00
2018-05-11T06:59:49.482Z,2068.00
2018-05-11T07:00:49.518Z,2068.00
2018-05-11T07:01:49.842Z,2080.00
2018-05-11T07:02:49.574Z,2088.00
2018-05-11T07:03:49.601Z,2096.00
2018-05-11T07:04:49.687Z,2104.00
2018-05-11T07:05:49.673Z,2112.00
2018-05-11T07:06:49.743Z,2112.00
2018-05-11T07:07:50.152Z,2128.00
2018-05-11T07:08:49.774Z,2268.00
2018-05-11T07:09:49.794Z,2232.00
2018-05-11T07:10:49.852Z,2212.00
2018-05-11T07:11:49.868Z,2240.00
2018-05-11T07:12:49.993Z,2312.00
2018-05-11T07:13:50.232Z,2372.00
2018-05-11T07:14:49.954Z,2388.00
2018-05-11T07:15:49.990Z,2404.00
2018-05-11T07:16:50.013Z,2416.00
2018-05-11T07:17:50.053Z,2408.00
2018-05-11T07:18:50.180Z,2468.00
2018-05-11T07:19:50.417Z,2492.00
2018-05-11T07:20:50.144Z,2580.00
2018-05-11T07:21:50.226Z,2644.00
2018-05-11T07:22:50.227Z,2704.00
2018-05-11T07:23:50.239Z,2800.00
2018-05-11T07:24:50.269Z,3012.00
2018-05-11T07:25:50.764Z,3260.00
2018-05-11T07:26:50.343Z,3252.00
2018-05-11T07:27:50.395Z,3224.00
2018-05-11T07:28:50.396Z,3164.00
2018-05-11T07:29:50.520Z,3172.00
2018-05-11T07:30:50.465Z,3248.00
2018-05-11T07:31:50.844Z,3336.00
2018-05-11T07:32:50.545Z,3208.00
2018-05-11T07:33:50.553Z,3308.00
2018-05-11T07:34:50.626Z,3400.00
2018-05-11T07:35:50.632Z,3500.00
2018-05-11T07:36:50.646Z,3624.00
2018-05-11T07:37:51.065Z,3764.00
2018-05-11T07:38:50.717Z,3896.00
2018-05-11T07:39:50.752Z,3948.00
2018-05-11T07:40:50.783Z,3948.00
2018-05-11T07:41:50.918Z,3892.00
2018-05-11T07:42:50.864Z,3784.00
2018-05-11T07:43:51.211Z,3688.00
2018-05-11T07:44:50.911Z,3640.00
2018-05-11T07:45:50.945Z,3632.00
2018-05-11T07:46:50.976Z,3700.00
2018-05-11T07:47:51.018Z,3784.00
2018-05-11T07:48:51.051Z,3872.00
2018-05-11T07:49:51.424Z,3856.00
2018-05-11T07:50:51.097Z,3788.00
2018-05-11T07:51:51.146Z,3788.00
2018-05-11T07:52:51.170Z,3836.00
2018-05-11T07:53:51.213Z,3976.00
2018-05-11T07:54:51.241Z,4124.00
2018-05-11T07:55:51.592Z,4264.00
2018-05-11T07:56:51.362Z,4324.00
2018-05-11T07:57:51.337Z,4280.00
2018-05-11T07:58:51.365Z,4184.00
2018-05-11T07:59:51.405Z,4084.00
2018-05-11T08:00:51.449Z,3916.00
2018-05-11T08:01:51.759Z,3876.00
2018-05-11T08:02:51.521Z,3864.00
2018-05-11T08:03:51.736Z,3860.00
2018-05-11T08:04:51.565Z,3816.00
2018-05-11T08:05:51.677Z,3756.00
2018-05-11T08:06:51.631Z,3628.00
2018-05-11T08:07:51.955Z,3468.00
2018-05-11T08:08:51.686Z,3400.00
2018-05-11T08:09:51.751Z,3392.00
2018-05-11T08:10:51.754Z,3416.00
2018-05-11T08:11:51.789Z,3416.00
2018-05-11T08:12:51.817Z,3344.00
2018-05-11T08:13:52.168Z,3336.00
2018-05-11T08:14:51.887Z,3256.00
2018-05-11T08:15:51.932Z,3136.00
2018-05-11T08:16:52.000Z,3048.00
2018-05-11T08:17:51.980Z,3032.00
2018-05-11T08:18:52.021Z,3024.00
2018-05-11T08:19:52.372Z,2992.00
2018-05-11T08:20:52.082Z,2800.00
2018-05-11T08:21:52.171Z,2812.00
2018-05-11T08:22:52.148Z,2852.00
2018-05-11T08:23:52.189Z,2888.00
2018-05-11T08:24:52.258Z,2984.00
2018-05-11T08:25:52.571Z,3108.00
2018-05-11T08:26:52.463Z,3360.00
2018-05-11T08:27:52.308Z,3684.00
2018-05-11T08:28:52.340Z,3812.00
2018-05-11T08:29:52.373Z,3768.00
2018-05-11T08:30:52.405Z,3704.00
2018-05-11T08:31:52.741Z,3692.00
2018-05-11T08:32:52.474Z,3844.00
2018-05-11T08:33:52.505Z,3900.00
2018-05-11T08:34:52.537Z,3796.00
2018-05-11T08:35:52.643Z,3760.00
2018-05-11T08:36:52.707Z,3700.00
2018-05-11T08:37:52.939Z,3632.00
2018-05-11T08:38:52.694Z,3596.00
2018-05-11T08:39:52.705Z,3512.00
2018-05-11T08:40:52.740Z,3336.00
2018-05-11T08:41:52.770Z,3160.00
2018-05-11T08:42:52.983Z,3040.00
2018-05-11T08:43:53.137Z,2964.00
2018-05-11T08:44:52.875Z,2904.00
2018-05-11T08:45:52.900Z,2804.00
2018-05-11T08:46:52.948Z,2716.00
2018-05-11T08:47:53.021Z,2668.00
2018-05-11T08:48:53.002Z,2760.00
2018-05-11T08:49:53.332Z,2640.00
2018-05-11T08:50:53.068Z,2608.00
2018-05-11T08:51:53.114Z,2520.00
2018-05-11T08:52:53.209Z,2504.00
2018-05-11T08:53:53.183Z,2536.00
2018-05-11T08:54:53.210Z,2524.00
2018-05-11T08:55:53.557Z,2484.00
2018-05-11T08:56:53.270Z,2452.00
2018-05-11T08:57:53.548Z,2468.00
2018-05-11T08:58:53.388Z,2516.00
2018-05-11T08:59:53.453Z,2548.00
2018-05-11T09:00:53.406Z,2464.00
2018-05-11T09:01:53.743Z,2368.00
2018-05-11T09:02:53.551Z,2372.00
2018-05-11T09:03:53.506Z,2380.00
2018-05-11T09:04:53.537Z,2416.00
2018-05-11T09:05:53.570Z,2544.00
2018-05-11T09:06:53.599Z,2784.00
2018-05-11T09:07:53.926Z,2996.00
2018-05-11T09:08:53.714Z,3004.00
2018-05-11T09:09:53.701Z,3064.00
2018-05-11T09:10:53.734Z,2876.00
2018-05-11T09:11:53.758Z,2812.00
2018-05-11T09:12:53.895Z,2852.00
2018-05-11T09:13:54.132Z,2896.00
2018-05-11T09:14:53.867Z,2788.00
2018-05-11T09:15:53.901Z,2940.00
2018-05-11T09:16:53.929Z,2936.00
2018-05-11T09:17:53.973Z,2944.00
2018-05-11T09:18:54.020Z,2948.00
2018-05-11T09:19:54.326Z,2908.00
2018-05-11T09:20:54.056Z,2900.00
2018-05-11T09:21:54.095Z,2904.00
2018-05-11T09:22:54.479Z,2924.00
2018-05-11T09:23:54.161Z,2940.00
2018-05-11T09:24:54.444Z,2940.00
2018-05-11T09:25:54.523Z,2992.00
2018-05-11T09:26:54.255Z,2908.00
2018-05-11T09:27:54.294Z,3012.00
2018-05-11T09:28:54.327Z,2992.00
2018-05-11T09:29:54.361Z,3052.00
2018-05-11T09:30:54.389Z,3088.00
2018-05-11T09:31:54.745Z,3044.00
2018-05-11T09:32:54.719Z,3084.00
2018-05-11T09:33:54.562Z,3092.00
2018-05-11T09:34:54.527Z,2996.00
2018-05-11T09:35:54.559Z,2988.00
2018-05-11T09:36:54.641Z,3060.00
2018-05-11T09:37:54.937Z,3076.00
2018-05-11T09:38:54.955Z,3104.00
2018-05-11T09:39:54.722Z,3076.00
2018-05-11T09:40:54.726Z,3012.00
2018-05-11T09:41:54.774Z,3008.00
2018-05-11T09:42:54.794Z,3072.00
2018-05-11T09:43:55.228Z,3060.00
2018-05-11T09:44:54.857Z,2912.00
2018-05-11T09:45:54.897Z,2936.00
2018-05-11T09:46:54.922Z,2916.00
2018-05-11T09:47:54.959Z,3044.00
2018-05-11T09:48:55.147Z,3076.00
2018-05-11T09:49:55.327Z,3080.00
2018-05-11T09:50:55.066Z,3084.00
2018-05-11T09:51:55.091Z,3092.00
2018-05-11T09:52:55.133Z,3104.00
2018-05-11T09:53:55.207Z,3120.00
2018-05-11T09:54:55.290Z,3148.00
2018-05-11T09:55:55.754Z,3184.00
2018-05-11T09:56:55.268Z,3220.00
2018-05-11T09:57:55.288Z,3260.00
2018-05-11T09:58:55.329Z,3332.00
2018-05-11T09:59:55.550Z,3372.00
2018-05-11T10:00:55.514Z,3260.00
2018-05-11T10:01:55.723Z,3292.00
2018-05-11T10:02:55.453Z,3324.00
2018-05-11T10:03:55.489Z,3504.00
2018-05-11T10:04:55.573Z,3596.00
2018-05-11T10:05:55.553Z,3600.00
2018-05-11T10:06:55.589Z,3604.00
2018-05-11T10:07:56.014Z,3600.00
2018-05-11T10:08:55.678Z,3580.00
2018-05-11T10:09:55.791Z,3572.00
2018-05-11T10:10:55.739Z,3572.00
2018-05-11T10:11:55.757Z,3560.00
2018-05-11T10:12:55.814Z,3528.00
2018-05-11T10:13:56.203Z,3500.00
2018-05-11T10:14:56.040Z,3500.00
2018-05-11T10:15:55.904Z,3496.00
2018-05-11T10:16:55.926Z,3476.00
2018-05-11T10:17:55.966Z,3452.00
2018-05-11T10:18:55.994Z,3412.00
2018-05-11T10:19:56.425Z,3376.00
2018-05-11T10:20:56.163Z,3356.00
2018-05-11T10:21:56.103Z,3328.00
2018-05-11T10:22:56.117Z,3284.00
2018-05-11T10:23:56.162Z,3260.00
2018-05-11T10:24:56.228Z,3260.00
2018-05-11T10:25:56.523Z,3248.00
2018-05-11T10:26:56.261Z,3228.00
2018-05-11T10:27:56.292Z,3220.00
2018-05-11T10:28:56.407Z,3204.00
2018-05-11T10:29:56.516Z,3204.00
2018-05-11T10:30:56.384Z,3220.00
2018-05-11T10:31:56.722Z,3204.00
2018-05-11T10:32:56.459Z,3180.00
2018-05-11T10:33:56.494Z,3184.00
2018-05-11T10:34:56.524Z,3188.00
2018-05-11T10:35:56.651Z,3188.00
2018-05-11T10:36:56.584Z,3200.00
2018-05-11T10:37:56.917Z,3212.00
2018-05-11T10:38:56.675Z,3224.00
2018-05-11T10:39:56.797Z,3236.00
2018-05-11T10:40:56.716Z,3248.00
2018-05-11T10:41:56.804Z,3264.00
2018-05-11T10:42:56.781Z,3272.00
2018-05-11T10:43:57.124Z,3292.00
2018-05-11T10:44:56.863Z,3308.00
2018-05-11T10:45:56.990Z,3332.00
2018-05-11T10:46:56.923Z,3356.00
2018-05-11T10:47:56.951Z,3360.00
2018-05-11T10:48:56.989Z,3364.00
2018-05-11T10:49:57.405Z,3356.00
2018-05-11T10:50:57.114Z,3356.00
2018-05-11T10:51:57.087Z,3344.00
2018-05-11T10:52:57.117Z,3336.00
2018-05-11T10:53:57.155Z,3332.00
2018-05-11T10:54:57.202Z,3336.00
2018-05-11T10:55:57.625Z,3348.00
2018-05-11T10:56:57.256Z,3364.00
2018-05-11T10:57:57.294Z,3372.00
2018-05-11T10:58:57.336Z,3384.00
2018-05-11T10:59:57.355Z,3392.00
2018-05-11T11:00:57.393Z,3408.00
2018-05-11T11:01:57.776Z,3416.00
2018-05-11T11:02:57.471Z,3416.00
2018-05-11T11:03:57.520Z,3424.00
2018-05-11T11:04:57.532Z,3440.00
2018-05-11T11:05:57.589Z,3464.00
2018-05-11T11:06:57.601Z,3488.00
2018-05-11T11:07:58.016Z,3512.00
2018-05-11T11:08:57.674Z,3540.00
2018-05-11T11:09:57.692Z,3564.00
2018-05-11T11:10:58.029Z,3592.00
2018-05-11T11:11:57.759Z,3612.00
2018-05-11T11:12:57.793Z,3656.00
2018-05-11T11:13:58.290Z,3720.00
2018-05-11T11:14:57.861Z,3764.00
2018-05-11T11:15:57.894Z,3804.00
2018-05-11T11:16:57.925Z,3812.00
2018-05-11T11:17:57.968Z,3792.00
2018-05-11T11:18:57.990Z,3812.00
2018-05-11T11:19:58.592Z,3808.00
2018-05-11T11:20:58.061Z,3812.00
2018-05-11T11:21:58.194Z,3856.00
2018-05-11T11:22:58.127Z,3916.00
2018-05-11T11:23:58.163Z,3984.00
2018-05-11T11:24:58.193Z,4036.00
2018-05-11T11:25:58.634Z,4100.00
2018-05-11T11:26:58.262Z,4160.00
2018-05-11T11:27:58.292Z,4208.00
2018-05-11T11:28:58.339Z,4124.00
2018-05-11T11:29:58.354Z,4072.00
2018-05-11T11:30:58.399Z,4236.00
2018-05-11T11:31:58.781Z,4204.00
2018-05-11T11:32:58.462Z,3996.00
2018-05-11T11:33:58.488Z,3708.00
2018-05-11T11:34:58.525Z,3628.00
2018-05-11T11:35:58.560Z,3644.00
2018-05-11T11:36:58.645Z,3788.00
2018-05-11T11:37:58.927Z,3964.00
2018-05-11T11:38:58.657Z,4156.00
2018-05-11T11:39:58.696Z,4260.00
2018-05-11T11:40:58.752Z,4288.00
2018-05-11T11:41:58.766Z,4324.00
2018-05-11T11:42:58.807Z,4360.00
2018-05-11T11:43:59.130Z,4440.00
2018-05-11T11:44:58.876Z,4276.00
2018-05-11T11:45:58.906Z,4252.00
2018-05-11T11:46:59.084Z,4468.00
2018-05-11T11:47:58.971Z,4484.00
2018-05-11T11:48:59.015Z,4340.00
2018-05-11T11:49:59.337Z,4324.00
2018-05-11T11:50:59.118Z,4780.00
2018-05-11T11:51:59.119Z,4924.00
2018-05-11T11:52:59.165Z,4932.00
2018-05-11T11:53:59.219Z,4944.00
2018-05-11T11:54:59.212Z,4912.00
2018-05-11T11:55:59.649Z,4868.00
2018-05-11T11:56:59.277Z,4860.00
2018-05-11T11:57:59.302Z,4864.00
2018-05-11T11:58:59.337Z,4820.00
2018-05-11T11:59:59.399Z,4740.00
2018-05-11T12:00:59.406Z,4792.00
2018-05-11T12:01:59.843Z,4728.00
2018-05-11T12:02:59.484Z,4692.00
2018-05-11T12:03:59.507Z,4720.00
2018-05-11T12:04:59.539Z,4752.00
2018-05-11T12:05:59.575Z,4856.00
2018-05-11T12:06:59.600Z,4872.00
2018-05-11T12:08:00.015Z,4860.00
2018-05-11T12:08:59.694Z,4864.00
2018-05-11T12:09:59.715Z,4892.00
2018-05-11T12:10:59.739Z,4944.00
2018-05-11T12:11:59.774Z,4996.00
2018-05-11T12:13:00.022Z,5096.00
2018-05-11T12:14:00.160Z,5192.00
2018-05-11T12:14:59.963Z,5256.00
2018-05-11T12:15:59.911Z,5392.00
2018-05-11T12:16:59.991Z,5564.00
2018-05-11T12:17:59.981Z,5648.00
2018-05-11T12:19:00.011Z,5696.00
2018-05-11T12:20:00.369Z,5736.00
2018-05-11T12:21:00.084Z,5680.00
2018-05-11T12:22:00.117Z,5580.00
2018-05-11T12:23:00.245Z,5652.00
2018-05-11T12:24:00.182Z,5988.00
2018-05-11T12:25:00.217Z,6212.00
2018-05-11T12:26:00.642Z,6564.00
2018-05-11T12:27:00.329Z,7100.00
2018-05-11T12:28:00.322Z,7328.00
2018-05-11T12:29:00.352Z,7296.00